Time;durP1;ratioP1;P1;durP2;ratioP2;P2;SDS_P1;SDS_P2;PMS_P1;PMS_P2;Temp;Humidity;BMP_temperature;BMP_pressure;BME280_temperature;BME280_humidity;BME280_pressure;Samples;Min_cycle;Max_cycle;Signal;HPM_P1;HPM_P2
2022/04/05 00:00:10;;;;;;;4.10;3.78;;;;;;;6.21;61.20;97989.50;4136798;28;20212;-55
2022/04/05 00:02:12;;;;;;;1.92;1.80;;;;;;;6.19;61.21;97998.97;4138093;28;20571;-56
2022/04/05 00:04:14;;;;;;;2.17;2.08;;;;;;;6.17;61.31;97979.34;4135457;28;20908;-55
2022/04/05 00:06:16;;;;;;;1.88;1.80;;;;;;;6.20;61.60;97989.75;4151536;28;20610;-56
2022/04/05 00:08:17;;;;;;;2.45;2.25;;;;;;;6.14;61.29;97979.81;4134297;28;20249;-56
2022/04/05 00:10:19;;;;;;;1.30;1.30;;;;;;;6.13;61.55;97983.59;4138906;28;20936;-56
2022/04/05 00:12:21;;;;;;;2.05;1.95;;;;;;;6.07;61.92;97974.50;4152686;28;20723;-56
2022/04/05 00:14:23;;;;;;;1.10;1.10;;;;;;;6.05;62.48;97959.50;4150674;28;20606;-57
2022/04/05 00:16:24;;;;;;;2.00;1.90;;;;;;;6.08;62.20;97975.34;4136406;28;20822;-58
2022/04/05 00:18:26;;;;;;;2.53;2.33;;;;;;;6.08;62.69;97980.78;4137618;28;20206;-56
2022/04/05 00:20:28;;;;;;;3.03;2.83;;;;;;;6.07;62.30;97968.22;4150171;28;20212;-57
2022/04/05 00:22:30;;;;;;;2.20;2.00;;;;;;;6.02;62.58;97976.28;4150777;28;20592;-56
2022/04/05 00:24:31;;;;;;;1.70;1.60;;;;;;;6.04;62.63;97983.09;4135829;28;20213;-57
2022/04/05 00:26:34;;;;;;;2.13;2.03;;;;;;;6.00;62.77;97986.53;4137466;28;20202;-55
2022/04/05 00:28:36;;;;;;;2.08;1.98;;;;;;;5.96;62.89;97978.03;4154325;28;20283;-55
2022/04/05 00:30:38;;;;;;;1.83;1.73;;;;;;;6.04;63.00;97974.97;4155017;28;20217;-56
2022/04/05 00:32:40;;;;;;;2.00;1.90;;;;;;;6.05;63.02;97963.06;4152931;28;20227;-56
2022/04/05 00:34:41;;;;;;;2.40;2.28;;;;;;;6.01;63.09;97969.16;4153118;28;20675;-55
2022/04/05 00:36:44;;;;;;;2.05;1.95;;;;;;;6.07;63.02;97973.66;4150664;28;20248;-55
2022/04/05 00:38:46;;;;;;;1.45;1.45;;;;;;;5.98;63.58;97977.81;4135896;28;20673;-56
2022/04/05 00:40:47;;;;;;;1.65;1.55;;;;;;;5.96;63.64;97977.22;4139916;28;20259;-55
2022/04/05 00:42:49;;;;;;;1.42;1.33;;;;;;;5.96;63.94;97969.88;4136762;28;20245;-56
2022/04/05 00:44:51;;;;;;;1.48;1.38;;;;;;;5.93;64.54;97970.38;4138129;28;20233;-56
2022/04/05 00:46:54;;;;;;;2.65;2.42;;;;;;;5.92;64.76;97973.31;4154798;28;20208;-55
2022/04/05 00:49:01;;;;;;;1.50;1.42;;;;;;;5.83;65.49;97966.56;4154353;28;20209;-57
2022/04/05 00:51:03;;;;;;;1.95;1.90;;;;;;;5.86;65.86;97969.66;4134901;28;20753;-57
2022/04/05 00:53:07;;;;;;;2.15;1.95;;;;;;;5.85;65.95;97969.88;4136977;28;20678;-55
2022/04/05 00:55:10;;;;;;;2.10;1.90;;;;;;;5.86;66.26;97960.66;4151218;28;20212;-57
2022/04/05 00:57:14;;;;;;;1.38;1.38;;;;;;;5.74;66.77;97957.91;4150162;28;20229;-56
2022/04/05 00:59:17;;;;;;;1.70;1.70;;;;;;;5.70;67.65;97966.75;4147522;28;20267;-55
2022/04/05 01:01:21;;;;;;;2.08;1.98;;;;;;;5.71;67.73;97957.53;4146501;28;20251;-56
2022/04/05 01:03:23;;;;;;;1.55;1.55;;;;;;;5.63;68.34;97966.84;4145072;28;20224;-56
2022/04/05 01:05:27;;;;;;;1.95;1.85;;;;;;;5.60;68.96;97959.16;4152036;28;20559;-56
2022/04/05 01:07:30;;;;;;;3.25;1.42;;;;;;;5.50;69.66;97960.78;4151968;28;20205;-56
2022/04/05 01:09:32;;;;;;;1.90;1.80;;;;;;;5.47;69.93;97961.25;4137297;28;20238;-56
2022/04/05 01:11:34;;;;;;;2.03;1.83;;;;;;;5.44;70.23;97967.94;4151384;28;20267;-57
2022/04/05 01:13:35;;;;;;;1.77;1.67;;;;;;;5.38;70.40;97963.47;4149237;28;20278;-58
2022/04/05 01:15:49;;;;;;;2.75;2.55;;;;;;;5.39;70.81;97942.59;4149144;28;20796;-57
2022/04/05 01:17:53;;;;;;;1.80;1.70;;;;;;;5.42;70.98;97964.66;4134659;28;20267;-56
2022/04/05 01:19:55;;;;;;;1.60;1.50;;;;;;;5.45;70.88;97941.66;4136671;28;20643;-56
2022/04/05 01:21:57;;;;;;;1.80;1.70;;;;;;;5.43;71.21;97952.75;4136961;28;20248;-56
2022/04/05 01:24:12;;;;;;;2.40;2.30;;;;;;;5.40;71.43;97963.22;4148813;28;20208;-56
2022/04/05 01:26:15;;;;;;;2.03;1.83;;;;;;;5.34;71.73;97945.16;4151478;28;20311;-56
2022/04/05 01:28:17;;;;;;;2.20;2.10;;;;;;;5.27;72.35;97958.00;4151152;28;20205;-56
2022/04/05 01:30:19;;;;;;;2.08;1.98;;;;;;;5.26;72.96;97959.91;4135099;28;20205;-55
2022/04/05 01:32:22;;;;;;;1.80;1.70;;;;;;;5.30;72.53;97949.41;4133487;28;20230;-54
2022/04/05 01:34:25;;;;;;;1.80;1.70;;;;;;;5.33;72.95;97955.19;4150526;28;20209;-55
2022/04/05 01:36:27;;;;;;;1.70;1.58;;;;;;;5.29;73.40;97953.19;4151207;28;20213;-56
2022/04/05 01:38:29;;;;;;;1.88;1.77;;;;;;;5.28;73.49;97952.34;4134119;28;20288;-55
2022/04/05 01:40:31;;;;;;;2.47;2.38;;;;;;;5.35;73.26;97946.84;4151342;28;20741;-56
2022/04/05 01:42:34;;;;;;;2.03;1.92;;;;;;;5.24;74.02;97945.72;4137214;28;20239;-56
2022/04/05 01:44:37;;;;;;;3.25;2.22;;;;;;;5.26;74.22;97948.19;4150686;28;20670;-56
2022/04/05 01:46:39;;;;;;;1.70;1.60;;;;;;;5.22;74.55;97953.25;4150247;28;20205;-57
2022/04/05 01:48:41;;;;;;;2.15;1.95;;;;;;;5.22;74.63;97949.75;4137171;28;20210;-55
2022/04/05 01:50:43;;;;;;;1.88;1.77;;;;;;;5.19;74.79;97942.06;4153246;28;20809;-55
2022/04/05 01:52:45;;;;;;;2.90;2.72;;;;;;;5.32;74.59;97950.00;4150672;28;20229;-57
2022/04/05 01:54:47;;;;;;;1.65;1.63;;;;;;;5.19;75.21;97942.06;4153018;28;20211;-56
2022/04/05 01:56:51;;;;;;;2.13;2.03;;;;;;;5.23;75.16;97935.94;4135646;28;20237;-56
2022/04/05 01:58:52;;;;;;;2.30;2.20;;;;;;;5.24;75.35;97939.47;4135770;28;20205;-54
2022/04/05 02:00:54;;;;;;;2.20;2.00;;;;;;;5.23;75.40;97938.63;4154517;28;20213;-55
2022/04/05 02:02:56;;;;;;;1.90;1.80;;;;;;;5.25;75.59;97938.41;4156767;28;20259;-56
2022/04/05 02:04:57;;;;;;;1.85;1.75;;;;;;;5.26;75.16;97942.78;4142735;28;20784;-56
2022/04/05 02:06:59;;;;;;;2.13;2.03;;;;;;;5.28;75.49;97946.06;4156918;28;20216;-55
2022/04/05 02:09:01;;;;;;;1.83;1.73;;;;;;;5.32;75.26;97952.72;4139676;28;21707;-56
2022/04/05 02:11:03;;;;;;;1.77;1.67;;;;;;;5.29;75.69;97950.47;4140856;28;20208;-55
2022/04/05 02:13:05;;;;;;;1.60;1.50;;;;;;;5.26;76.20;97961.75;4158269;28;20236;-56
2022/04/05 02:15:08;;;;;;;2.40;2.30;;;;;;;5.27;76.57;97949.84;4141410;28;20205;-56
2022/04/05 02:17:11;;;;;;;1.90;1.80;;;;;;;5.16;76.55;97953.38;4155536;28;20247;-59
2022/04/05 02:19:13;;;;;;;1.02;1.02;;;;;;;5.25;76.51;97951.97;4141634;28;20201;-56
2022/04/05 02:21:15;;;;;;;1.75;1.65;;;;;;;5.20;76.61;97952.69;4142380;28;20259;-56
2022/04/05 02:23:17;;;;;;;1.25;1.20;;;;;;;5.26;76.59;97968.03;4157610;28;20359;-56
2022/04/05 02:25:19;;;;;;;2.55;2.45;;;;;;;5.18;77.05;97948.53;4154848;28;20245;-56
2022/04/05 02:27:21;;;;;;;2.15;2.05;;;;;;;5.22;76.79;97958.69;4140155;28;20206;-56
2022/04/05 02:29:23;;;;;;;1.75;1.65;;;;;;;5.22;76.96;97957.88;4156000;28;20266;-57
2022/04/05 02:31:24;;;;;;;2.10;2.00;;;;;;;5.16;76.98;97956.88;4141304;28;20264;-57
2022/04/05 02:33:26;;;;;;;1.88;1.77;;;;;;;5.17;76.97;97955.03;4139471;28;20297;-57
2022/04/05 02:35:28;;;;;;;2.15;2.05;;;;;;;5.20;77.01;97965.41;4142238;28;20700;-56
2022/04/05 02:37:29;;;;;;;2.03;1.92;;;;;;;5.16;77.19;97954.19;4154535;28;20229;-57
2022/04/05 02:39:31;;;;;;;1.70;1.60;;;;;;;5.21;76.88;97942.63;4153845;28;20732;-55
2022/04/05 02:41:33;;;;;;;2.00;1.90;;;;;;;5.16;77.03;97950.66;4156648;28;20271;-57
2022/04/05 02:43:35;;;;;;;3.03;2.83;;;;;;;5.13;77.31;97960.06;4157379;28;20691;-56
2022/04/05 02:45:37;;;;;;;2.55;2.35;;;;;;;5.17;77.13;97955.81;4155675;28;20258;-57
2022/04/05 02:47:39;;;;;;;1.73;1.63;;;;;;;5.11;77.38;97947.81;4155850;28;20235;-56
2022/04/05 02:49:41;;;;;;;1.20;1.20;;;;;;;5.17;76.95;97938.75;4139665;28;20268;-57
2022/04/05 02:51:42;;;;;;;1.98;1.85;;;;;;;5.22;76.89;97936.19;4140049;28;20252;-57
2022/04/05 02:53:45;;;;;;;1.65;1.42;;;;;;;5.23;76.97;97929.69;4141229;28;20331;-56
2022/04/05 02:55:46;;;;;;;1.75;1.65;;;;;;;5.19;77.27;97931.19;4141073;28;20210;-56
2022/04/05 02:57:50;;;;;;;2.38;2.22;;;;;;;5.23;76.96;97943.25;4139006;28;20593;-55
2022/04/05 02:59:51;;;;;;;1.75;1.65;;;;;;;5.14;77.39;97931.91;4156915;28;20965;-55
2022/04/05 03:01:53;;;;;;;1.70;1.63;;;;;;;5.16;77.57;97937.91;4147006;28;20207;-57
2022/04/05 03:03:55;;;;;;;2.03;1.92;;;;;;;5.19;77.18;97931.19;4138956;28;20217;-56
2022/04/05 03:05:57;;;;;;;1.60;1.50;;;;;;;5.18;77.55;97934.97;4126716;28;20216;-55
2022/04/05 03:07:58;;;;;;;1.83;1.73;;;;;;;5.26;76.96;97924.63;4138371;28;20201;-57
2022/04/05 03:10:01;;;;;;;2.45;2.35;;;;;;;5.17;77.79;97927.91;4138965;28;20209;-56
2022/04/05 03:12:03;;;;;;;1.67;1.58;;;;;;;5.23;77.66;97930.50;4154113;28;20270;-56
2022/04/05 03:14:05;;;;;;;3.30;3.03;;;;;;;5.13;77.78;97938.38;4151683;28;20196;-57
2022/04/05 03:16:07;;;;;;;2.45;2.35;;;;;;;5.18;77.59;97935.81;4151727;28;20213;-55
2022/04/05 03:18:08;;;;;;;3.40;2.38;;;;;;;5.22;77.99;97930.75;4153506;28;20247;-57
2022/04/05 03:20:14;;;;;;;1.25;1.25;;;;;;;5.29;77.79;97926.06;4154845;28;20208;-56
2022/04/05 03:22:16;;;;;;;1.70;1.60;;;;;;;5.24;77.86;97917.78;4136815;28;20284;-55
2022/04/05 03:24:18;;;;;;;1.55;1.45;;;;;;;5.23;77.55;97924.28;4150910;28;20890;-56
2022/04/05 03:26:20;;;;;;;1.50;1.40;;;;;;;5.23;77.62;97910.72;4141370;28;20695;-56
2022/04/05 03:28:22;;;;;;;1.85;1.75;;;;;;;5.23;77.96;97921.56;4154108;28;20817;-55
2022/04/05 03:30:24;;;;;;;2.25;2.15;;;;;;;5.22;77.78;97909.88;4135129;28;20213;-56
2022/04/05 03:32:26;;;;;;;1.77;1.67;;;;;;;5.21;77.77;97915.53;4123814;28;20234;-56
2022/04/05 03:34:28;;;;;;;1.90;1.80;;;;;;;5.26;77.63;97916.50;4149596;28;20201;-55
2022/04/05 03:36:30;;;;;;;1.92;1.77;;;;;;;5.26;77.46;97921.94;4149864;28;20240;-56
2022/04/05 03:38:31;;;;;;;1.52;1.50;;;;;;;5.26;77.38;97916.50;4136685;28;20276;-56
2022/04/05 03:40:33;;;;;;;2.08;1.98;;;;;;;5.26;77.56;97910.25;4135543;28;20228;-56
2022/04/05 03:42:35;;;;;;;2.00;1.80;;;;;;;5.25;77.35;97912.13;4151598;28;20306;-55
2022/04/05 03:44:36;;;;;;;1.38;1.30;;;;;;;5.26;77.13;97904.81;4135111;28;20232;-55
2022/04/05 03:46:38;;;;;;;1.58;1.48;;;;;;;5.31;76.98;97921.22;4153688;28;20213;-55
2022/04/05 03:48:40;;;;;;;1.98;1.88;;;;;;;5.29;76.80;97910.59;4151645;28;20270;-55
2022/04/05 03:50:42;;;;;;;1.67;1.65;;;;;;;5.27;77.03;97917.31;4136741;28;20210;-54
2022/04/05 03:52:44;;;;;;;1.60;1.50;;;;;;;5.26;77.31;97916.50;4133649;28;20229;-55
2022/04/05 03:54:46;;;;;;;1.65;1.65;;;;;;;5.31;76.99;97907.66;4142293;28;20663;-55
2022/04/05 03:56:47;;;;;;;1.98;1.98;;;;;;;5.29;76.84;97905.19;4135235;28;20714;-56
2022/04/05 03:58:49;;;;;;;1.38;1.38;;;;;;;5.34;76.70;97912.63;4139643;28;20660;-55
2022/04/05 04:00:51;;;;;;;1.60;1.52;;;;;;;5.32;76.92;97914.75;4152529;28;20626;-56
2022/04/05 04:02:53;;;;;;;1.38;1.38;;;;;;;5.33;76.96;97913.69;4136438;28;20228;-55
2022/04/05 04:04:55;;;;;;;1.92;1.80;;;;;;;5.35;76.83;97919.72;4138969;28;20248;-55
2022/04/05 04:06:57;;;;;;;1.08;1.08;;;;;;;5.32;76.99;97906.59;4135491;28;20210;-56
2022/04/05 04:08:59;;;;;;;1.92;1.83;;;;;;;5.34;76.85;97909.91;4122090;28;20210;-56
2022/04/05 04:11:02;;;;;;;1.83;1.73;;;;;;;5.34;76.90;97915.31;4152561;28;20619;-55
2022/04/05 04:13:06;;;;;;;1.63;1.60;;;;;;;5.32;77.51;97920.16;4149813;28;20233;-56
2022/04/05 04:15:09;;;;;;;1.30;1.30;;;;;;;5.35;77.04;97920.53;4135156;28;20721;-55
2022/04/05 04:17:11;;;;;;;1.45;1.35;;;;;;;5.37;77.02;97912.16;4149468;28;20276;-57
2022/04/05 04:19:12;;;;;;;2.00;1.60;;;;;;;5.37;76.95;97921.09;4152212;28;20228;-55
2022/04/05 04:21:14;;;;;;;2.20;2.10;;;;;;;5.38;77.31;97911.94;4139894;28;20731;-56
2022/04/05 04:23:16;;;;;;;1.75;1.65;;;;;;;5.32;77.34;97918.28;4150399;28;20314;-56
2022/04/05 04:25:20;;;;;;;1.60;1.50;;;;;;;5.35;77.64;97915.09;4150552;28;20571;-55
2022/04/05 04:27:23;;;;;;;1.52;1.48;;;;;;;5.41;77.48;97919.59;4134699;28;20252;-55
2022/04/05 04:29:24;;;;;;;1.88;1.77;;;;;;;5.39;77.63;97912.75;4149887;28;20255;-55
2022/04/05 04:31:26;;;;;;;1.10;1.10;;;;;;;5.31;78.20;97919.34;4153343;28;20679;-55
2022/04/05 04:33:28;;;;;;;1.30;1.25;;;;;;;5.36;78.07;97921.38;4138149;28;20292;-56
2022/04/05 04:35:30;;;;;;;1.95;1.63;;;;;;;5.29;78.74;97920.63;4131975;28;20256;-56
2022/04/05 04:37:37;;;;;;;1.25;1.20;;;;;;;5.28;78.43;97916.25;4132480;28;20222;-54
2022/04/05 04:39:38;;;;;;;1.48;1.48;;;;;;;5.26;78.50;97916.50;4136119;28;20774;-55
2022/04/05 04:41:40;;;;;;;1.40;1.30;;;;;;;5.25;78.94;97919.44;4135924;28;20245;-55
2022/04/05 04:43:42;;;;;;;1.58;1.48;;;;;;;5.27;78.76;97928.16;4151522;28;20661;-56
2022/04/05 04:45:45;;;;;;;2.08;1.98;;;;;;;5.25;78.70;97916.72;4153325;28;20209;-55
2022/04/05 04:47:47;;;;;;;2.33;2.22;;;;;;;5.28;78.68;97919.81;4137033;28;20233;-55
2022/04/05 04:49:48;;;;;;;1.60;1.50;;;;;;;5.26;78.58;97921.09;4149913;28;20201;-55
2022/04/05 04:51:55;;;;;;;1.95;1.85;;;;;;;5.27;78.70;97931.72;4120824;28;20596;-55
2022/04/05 04:53:57;;;;;;;1.50;1.50;;;;;;;5.26;78.70;97929.22;4134308;28;20214;-55
2022/04/05 04:55:59;;;;;;;1.20;1.20;;;;;;;5.33;78.76;97932.66;4154068;28;20279;-55
2022/04/05 04:58:09;;;;;;;2.03;1.92;;;;;;;5.35;78.28;97928.66;4136543;28;20317;-55
2022/04/05 05:00:11;;;;;;;1.23;1.23;;;;;;;5.34;78.64;97934.31;4153567;28;20609;-56
2022/04/05 05:02:13;;;;;;;1.70;1.63;;;;;;;5.34;78.28;97923.47;4152145;28;20302;-55
2022/04/05 05:04:15;;;;;;;1.45;1.35;;;;;;;5.29;78.61;97936.91;4137310;28;20874;-55
2022/04/05 05:06:17;;;;;;;2.00;1.90;;;;;;;5.33;78.82;97924.53;4153403;28;20283;-56
2022/04/05 05:08:19;;;;;;;1.35;1.35;;;;;;;5.32;78.34;97926.44;4136871;28;20209;-55
2022/04/05 05:10:22;;;;;;;1.67;1.58;;;;;;;5.31;78.44;97942.94;4136948;28;20226;-55
2022/04/05 05:12:27;;;;;;;1.42;1.42;;;;;;;5.35;78.28;97930.56;4153083;28;20221;-55
2022/04/05 05:14:30;;;;;;;1.70;1.35;;;;;;;5.35;78.02;97933.28;4152081;28;20213;-55
2022/04/05 05:16:33;;;;;;;1.80;1.70;;;;;;;5.38;77.97;97936.34;4153864;28;20212;-55
2022/04/05 05:18:37;;;;;;;1.40;1.30;;;;;;;5.42;77.87;97936.72;4154377;28;20319;-55
2022/04/05 05:20:39;;;;;;;1.88;1.63;;;;;;;5.40;77.72;97931.50;4135982;28;20210;-56
2022/04/05 05:22:41;;;;;;;1.20;1.20;;;;;;;5.44;77.43;97929.16;4137046;28;20222;-55
2022/04/05 05:24:49;;;;;;;1.30;1.30;;;;;;;5.53;76.85;97934.03;4150472;28;20263;-56
2022/04/05 05:26:51;;;;;;;2.17;1.42;;;;;;;5.50;77.28;97933.66;4133400;28;20610;-56
2022/04/05 05:28:53;;;;;;;1.63;1.60;;;;;;;5.51;77.35;97935.31;4134390;28;20202;-56
2022/04/05 05:30:55;;;;;;;1.63;1.58;;;;;;;5.47;78.23;97944.97;4118844;28;20281;-60
2022/04/05 05:32:56;;;;;;;1.58;1.48;;;;;;;5.33;78.64;97944.34;4132680;28;20237;-54
2022/04/05 05:34:58;;;;;;;1.55;1.45;;;;;;;5.39;78.63;97937.16;4149994;28;20208;-53
2022/04/05 05:37:00;;;;;;;1.70;1.60;;;;;;;5.40;78.81;97936.09;4133988;28;20630;-54
2022/04/05 05:39:02;;;;;;;2.00;1.90;;;;;;;5.39;78.93;97938.00;4151158;28;20233;-56
2022/04/05 05:41:04;;;;;;;1.20;1.20;;;;;;;5.39;79.07;97939.88;4134062;28;20217;-53
2022/04/05 05:43:09;;;;;;;1.58;1.58;;;;;;;5.33;79.39;97940.78;4151525;28;21145;-54
2022/04/05 05:45:10;;;;;;;1.00;1.00;;;;;;;5.36;79.49;97937.63;4149618;28;20750;-53
2022/04/05 05:47:18;;;;;;;1.35;1.25;;;;;;;5.41;78.92;97940.47;4151814;28;20251;-52
2022/04/05 05:49:20;;;;;;;1.13;1.13;;;;;;;5.37;79.43;97934.66;4139749;28;20316;-53
2022/04/05 05:51:22;;;;;;;1.60;1.50;;;;;;;5.38;78.99;97935.50;4152040;28;20303;-53
2022/04/05 05:53:27;;;;;;;1.27;1.27;;;;;;;5.36;79.42;97926.78;4155084;28;20224;-53
2022/04/05 05:55:33;;;;;;;1.83;1.73;;;;;;;5.29;79.60;97939.63;4121042;28;20213;-54
2022/04/05 05:57:38;;;;;;;1.13;1.13;;;;;;;5.30;79.73;97944.78;4134750;28;20197;-56
2022/04/05 05:59:41;;;;;;;1.60;1.50;;;;;;;5.32;79.72;97941.84;4139306;28;20218;-53
2022/04/05 06:01:52;;;;;;;1.48;1.40;;;;;;;5.29;79.70;97953.19;4139062;28;20208;-56
2022/04/05 06:03:54;;;;;;;1.38;1.38;;;;;;;5.35;79.48;97947.66;4137119;28;20209;-54
2022/04/05 06:05:56;;;;;;;1.05;1.05;;;;;;;5.33;79.81;97957.06;4153790;28;20309;-54
2022/04/05 06:07:58;;;;;;;0.98;0.98;;;;;;;5.35;80.08;97957.69;4154514;28;20220;-54
2022/04/05 06:10:01;;;;;;;1.20;1.20;;;;;;;5.33;79.41;97965.22;4136906;28;20206;-56
2022/04/05 06:12:05;;;;;;;0.95;0.95;;;;;;;5.31;79.72;97957.31;4137775;28;20214;-53
2022/04/05 06:14:07;;;;;;;1.70;1.60;;;;;;;5.40;79.37;97960.50;4136691;28;20240;-53
2022/04/05 06:16:09;;;;;;;1.15;1.15;;;;;;;5.37;79.06;97961.00;4152672;28;20674;-54
2022/04/05 06:18:11;;;;;;;1.50;1.50;;;;;;;5.41;79.26;97971.13;4135916;28;20691;-54
2022/04/05 06:20:16;;;;;;;1.67;1.58;;;;;;;5.43;79.08;97970.91;4137297;28;20197;-54
2022/04/05 06:22:19;;;;;;;1.45;1.45;;;;;;;5.39;78.80;97973.28;4152238;28;20729;-57
2022/04/05 06:24:21;;;;;;;1.60;1.50;;;;;;;5.45;78.61;97971.50;4132148;28;20206;-55
2022/04/05 06:26:22;;;;;;;1.10;1.10;;;;;;;5.41;78.93;97979.28;4133781;28;20205;-54
2022/04/05 06:28:24;;;;;;;1.10;1.10;;;;;;;5.43;79.18;97987.19;4149585;28;20223;-54
2022/04/05 06:30:26;;;;;;;1.30;1.30;;;;;;;5.44;78.80;97984.22;4132968;28;20260;-56
2022/04/05 06:32:36;;;;;;;1.00;1.00;;;;;;;5.41;78.86;97989.28;4150700;28;20240;-53
2022/04/05 06:34:37;;;;;;;1.17;1.17;;;;;;;5.41;79.13;97992.00;4136293;28;20590;-56
2022/04/05 06:36:42;;;;;;;1.38;1.10;;;;;;;5.38;79.14;97995.19;4152180;28;20209;-55
2022/04/05 06:38:44;;;;;;;1.95;1.88;;;;;;;5.38;79.51;97992.47;4153749;28;20672;-54
2022/04/05 06:40:54;;;;;;;1.77;1.67;;;;;;;5.40;79.20;97998.50;4152390;28;20261;-54
2022/04/05 06:42:56;;;;;;;1.50;1.40;;;;;;;5.35;79.28;97995.66;4136160;28;20333;-56
2022/04/05 06:45:05;;;;;;;1.42;1.42;;;;;;;5.37;79.62;97993.53;4138160;28;20210;-55
2022/04/05 06:47:11;;;;;;;1.70;1.60;;;;;;;5.37;79.72;97996.25;4121437;28;20206;-54
2022/04/05 06:49:17;;;;;;;1.60;1.50;;;;;;;5.38;79.81;97995.19;4145158;28;20660;-54
2022/04/05 06:51:20;;;;;;;1.92;1.80;;;;;;;5.39;79.92;97991.41;4141387;28;20668;-54
2022/04/05 06:53:26;;;;;;;1.35;1.35;;;;;;;5.31;80.26;97989.88;4131690;28;20229;-53
2022/04/05 06:55:29;;;;;;;1.75;1.65;;;;;;;5.34;80.26;97994.81;4125875;28;20210;-55
2022/04/05 06:57:35;;;;;;;1.85;1.77;;;;;;;5.33;80.48;97995.03;4142370;28;20696;-53
2022/04/05 06:59:37;;;;;;;1.25;1.25;;;;;;;5.37;80.00;97993.53;4140297;28;20225;-55
2022/04/05 07:01:43;;;;;;;1.27;1.20;;;;;;;5.30;80.53;97988.19;4142247;28;20209;-55
2022/04/05 07:03:45;;;;;;;1.77;1.67;;;;;;;5.36;80.41;97986.47;4156347;28;20225;-54
2022/04/05 07:05:47;;;;;;;1.83;1.73;;;;;;;5.38;80.31;97984.34;4125719;28;20694;-53
2022/04/05 07:07:49;;;;;;;1.40;1.40;;;;;;;5.32;80.37;97987.97;4125360;28;20210;-54
2022/04/05 07:09:51;;;;;;;1.63;1.55;;;;;;;5.40;80.52;97987.63;4141656;28;20210;-54
2022/04/05 07:11:53;;;;;;;0.98;0.98;;;;;;;5.37;80.39;97988.13;4140906;28;20237;-53
2022/04/05 07:13:55;;;;;;;1.90;1.88;;;;;;;5.36;80.44;97991.88;4157371;28;20200;-54
2022/04/05 07:15:58;;;;;;;2.53;1.70;;;;;;;5.38;80.69;97987.91;4138974;28;20629;-54
2022/04/05 07:18:09;;;;;;;1.77;1.67;;;;;;;5.39;80.82;97991.41;4155369;28;20250;-53
2022/04/05 07:20:13;;;;;;;1.40;1.40;;;;;;;5.41;80.56;97984.72;4123786;28;20226;-57
2022/04/05 07:22:15;;;;;;;2.22;2.05;;;;;;;5.38;80.37;97984.34;4156531;28;20286;-56
2022/04/05 07:24:21;;;;;;;2.38;2.28;;;;;;;5.46;80.21;97989.44;4155602;28;20221;-56
2022/04/05 07:26:30;;;;;;;2.25;2.10;;;;;;;5.49;80.36;97981.66;4142477;28;20690;-54
2022/04/05 07:28:34;;;;;;;1.52;1.42;;;;;;;5.44;80.10;97983.41;4159405;28;20209;-55
2022/04/05 07:30:36;;;;;;;1.50;1.50;;;;;;;5.49;80.51;97980.84;4142229;28;20683;-55
2022/04/05 07:32:53;;;;;;;2.38;1.83;;;;;;;5.50;80.55;97987.94;4140944;28;20280;-56
2022/04/05 07:34:56;;;;;;;1.75;1.65;;;;;;;5.48;80.46;98007.16;4158480;28;20230;-54
2022/04/05 07:37:00;;;;;;;1.73;1.63;;;;;;;5.46;80.17;97997.56;4138800;28;20224;-56
2022/04/05 07:39:13;;;;;;;1.60;1.55;;;;;;;5.53;80.49;97999.16;4155394;28;20223;-56
2022/04/05 07:41:15;;;;;;;1.80;1.75;;;;;;;5.60;80.13;98004.47;4144631;28;20198;-54
2022/04/05 07:43:24;;;;;;;1.88;1.77;;;;;;;5.60;80.07;97999.03;4142414;28;20225;-54
2022/04/05 07:45:30;;;;;;;1.63;1.63;;;;;;;5.52;80.54;97992.06;4143992;28;20201;-54
2022/04/05 07:47:33;;;;;;;1.83;1.73;;;;;;;5.59;80.43;97975.69;4141618;28;20264;-56
2022/04/05 07:49:43;;;;;;;1.20;1.20;;;;;;;5.62;80.42;97988.81;4154990;28;20209;-56
2022/04/05 07:51:45;;;;;;;1.27;1.27;;;;;;;5.60;80.57;97985.47;4155594;28;20201;-53
2022/04/05 07:53:47;;;;;;;1.45;1.35;;;;;;;5.63;80.23;97988.53;4142448;28;20282;-54
2022/04/05 07:56:00;;;;;;;1.65;1.58;;;;;;;5.69;80.26;97976.75;4125501;28;20633;-53
2022/04/05 07:58:05;;;;;;;1.30;1.20;;;;;;;5.71;80.62;97981.97;4141485;28;20233;-53
2022/04/05 08:00:07;;;;;;;1.42;1.35;;;;;;;5.71;80.60;97979.25;4138546;28;20229;-54
2022/04/05 08:02:10;;;;;;;1.27;1.23;;;;;;;5.73;80.16;97993.41;4155985;28;20221;-55
2022/04/05 08:04:29;;;;;;;1.38;1.35;;;;;;;5.76;80.59;97987.53;4126558;28;20225;-54
2022/04/05 08:06:31;;;;;;;1.63;1.52;;;;;;;5.74;80.45;97989.63;4138128;28;20202;-54
2022/04/05 08:08:33;;;;;;;1.63;1.52;;;;;;;5.72;80.98;97986.34;4138170;28;20613;-54
2022/04/05 08:10:56;;;;;;;1.33;1.33;;;;;;;5.70;81.11;97994.69;4153586;28;20210;-55
2022/04/05 08:13:00;;;;;;;1.05;1.05;;;;;;;5.70;81.04;97993.88;4138008;28;20229;-53
2022/04/05 08:15:02;;;;;;;1.92;1.83;;;;;;;5.75;80.47;97991.31;4140480;28;20308;-57
2022/04/05 08:17:03;;;;;;;1.70;1.60;;;;;;;5.80;80.64;97999.59;4139845;28;20209;-53
2022/04/05 08:19:05;;;;;;;1.75;1.65;;;;;;;5.76;80.68;97990.25;4153811;28;20315;-53
2022/04/05 08:21:10;;;;;;;1.45;1.38;;;;;;;5.73;80.68;98001.56;4138604;28;20210;-52
2022/04/05 08:23:13;;;;;;;2.08;1.88;;;;;;;5.74;80.98;98000.50;4137799;28;20218;-54
2022/04/05 08:25:18;;;;;;;1.63;1.52;;;;;;;5.82;81.03;97997.50;4138302;28;20875;-57
2022/04/05 08:27:20;;;;;;;1.85;1.75;;;;;;;5.80;80.96;97994.16;4155925;28;20209;-54
2022/04/05 08:29:39;;;;;;;1.67;1.65;;;;;;;5.86;81.04;98004.94;4140921;28;20247;-56
2022/04/05 08:32:08;;;;;;;1.52;1.42;;;;;;;5.94;80.72;98001.03;4142409;28;20208;-53
2022/04/05 08:34:14;;;;;;;1.73;1.63;;;;;;;5.94;80.63;98001.03;4133378;28;20301;-55
2022/04/05 08:36:22;;;;;;;1.27;1.27;;;;;;;5.98;81.05;97996.81;4156010;28;20209;-54
2022/04/05 08:38:28;;;;;;;1.40;1.40;;;;;;;6.05;80.43;97997.53;4138051;28;20204;-53
2022/04/05 08:40:31;;;;;;;1.52;1.42;;;;;;;6.15;80.70;98000.50;4156391;28;20733;-53
2022/04/05 08:42:38;;;;;;;1.52;1.42;;;;;;;6.18;80.41;98000.03;4143132;28;20696;-53
2022/04/05 08:44:43;;;;;;;1.55;1.55;;;;;;;6.21;80.27;98004.97;4138242;28;20292;-53
2022/04/05 08:46:45;;;;;;;1.27;1.25;;;;;;;6.16;80.16;98004.88;4152113;28;20232;-53
2022/04/05 08:48:48;;;;;;;1.45;1.42;;;;;;;6.22;80.19;98006.66;4150850;28;20204;-53
2022/04/05 08:50:50;;;;;;;1.40;1.35;;;;;;;6.25;79.87;98008.88;4145344;28;20255;-55
2022/04/05 08:52:54;;;;;;;2.50;1.73;;;;;;;6.19;80.07;98007.94;4147809;28;20279;-56
2022/04/05 08:54:56;;;;;;;1.88;1.77;;;;;;;6.19;80.12;98009.81;4131572;28;20229;-54
2022/04/05 08:56:57;;;;;;;1.63;1.52;;;;;;;6.27;80.21;98006.75;4138689;28;20594;-55
2022/04/05 08:58:59;;;;;;;2.10;2.00;;;;;;;6.37;80.26;98001.56;4150970;28;20267;-53
2022/04/05 09:01:01;;;;;;;1.67;1.58;;;;;;;6.40;80.39;98003.81;4133711;28;20707;-54
2022/04/05 09:03:05;;;;;;;1.42;1.33;;;;;;;6.37;79.83;98002.38;4134232;28;20267;-53
2022/04/05 09:05:08;;;;;;;1.55;1.45;;;;;;;6.42;79.66;98004.41;4145933;28;20205;-53
2022/04/05 09:07:32;;;;;;;1.88;1.77;;;;;;;6.51;79.78;97995.69;4138195;28;20264;-55
2022/04/05 09:09:35;;;;;;;1.55;1.45;;;;;;;6.57;79.97;98002.03;4136196;28;21291;-56
2022/04/05 09:11:43;;;;;;;1.38;1.38;;;;;;;6.63;79.57;97996.47;4152234;28;20876;-56
2022/04/05 09:13:58;;;;;;;1.52;1.42;;;;;;;6.58;79.79;97998.25;4138100;28;20232;-55
2022/04/05 09:16:04;;;;;;;1.48;1.38;;;;;;;6.54;79.53;98002.50;4137966;28;20619;-55
2022/04/05 09:18:31;;;;;;;1.77;1.67;;;;;;;6.58;79.70;98011.84;4136283;28;20206;-53
2022/04/05 09:20:47;;;;;;;1.30;1.30;;;;;;;6.50;79.91;98006.78;4150274;28;20275;-54
2022/04/05 09:22:51;;;;;;;2.22;2.13;;;;;;;6.57;79.88;98008.28;4149609;28;20274;-52
2022/04/05 09:24:53;;;;;;;1.90;1.80;;;;;;;6.63;79.47;98006.53;4131033;28;20210;-58
2022/04/05 09:26:58;;;;;;;1.70;1.60;;;;;;;6.63;79.40;98006.53;4137214;28;20206;-53
2022/04/05 09:29:07;;;;;;;1.15;1.13;;;;;;;6.68;79.71;98012.09;4120843;28;20249;-55
2022/04/05 09:31:11;;;;;;;1.63;1.52;;;;;;;6.61;79.75;98008.63;4148005;28;20208;-53
2022/04/05 09:33:13;;;;;;;1.50;1.40;;;;;;;6.65;79.65;98010.66;4146402;28;20233;-54
2022/04/05 09:35:18;;;;;;;1.48;1.38;;;;;;;6.60;79.77;98009.69;4131805;28;20303;-56
2022/04/05 09:37:26;;;;;;;1.65;1.55;;;;;;;6.61;79.23;98014.06;4116110;28;20210;-53
2022/04/05 09:39:28;;;;;;;1.42;1.35;;;;;;;6.63;79.41;98018.22;4146458;28;20256;-53
2022/04/05 09:41:30;;;;;;;1.27;1.25;;;;;;;6.65;79.56;98016.09;4133514;28;20206;-56
2022/04/05 09:43:32;;;;;;;1.23;1.23;;;;;;;6.59;78.92;98016.22;4132010;28;20253;-54
2022/04/05 09:45:52;;;;;;;1.63;1.52;;;;;;;6.67;78.98;98011.25;4132324;28;20300;-53
2022/04/05 09:48:04;;;;;;;2.40;2.30;;;;;;;6.63;78.58;98006.53;4153307;28;20303;-56